Time;durP1;ratioP1;P1;durP2;ratioP2;P2;SDS_P1;SDS_P2;PMS_P1;PMS_P2;Temp;Humidity;BMP_temperature;BMP_pressure;BME280_temperature;BME280_humidity;BME280_pressure;Samples;Min_cycle;Max_cycle;Signal;HPM_P1;HPM_P2
2022/05/07 00:00:50;;;;;;;11.73;7.87;;;;;;;;;;5034053;28;20112;-72
2022/05/07 00:03:16;;;;;;;14.35;8.63;;;;;;;;;;5033937;28;20303;-72
2022/05/07 00:05:41;;;;;;;10.90;8.43;;;;;;;;;;5033902;28;20032;-73
2022/05/07 00:08:06;;;;;;;8.98;7.50;;;;;;;;;;5034016;28;20084;-72
2022/05/07 00:10:32;;;;;;;9.52;7.95;;;;;;;;;;5034031;28;20050;-72
2022/05/07 00:12:57;;;;;;;14.07;8.40;;;;;;;;;;5033805;28;20044;-75
2022/05/07 00:15:23;;;;;;;12.45;8.10;;;;;;;;;;5033928;28;20025;-74
2022/05/07 00:18:05;;;;;;;9.13;8.18;;;;;;;;;;5033814;28;20031;-74
2022/05/07 00:20:31;;;;;;;10.68;8.35;;;;;;;;;;5033902;28;20033;-75
2022/05/07 00:22:57;;;;;;;12.57;8.35;;;;;;;;;;5033386;28;20022;-74
2022/05/07 00:25:23;;;;;;;11.60;8.35;;;;;;;;;;5033723;28;20025;-74
2022/05/07 00:27:50;;;;;;;10.30;8.07;;;;;;;;;;5033815;28;20087;-75
2022/05/07 00:30:15;;;;;;;11.30;8.75;;;;;;;;;;5015618;28;20022;-75
2022/05/07 00:32:41;;;;;;;11.07;7.97;;;;;;;;;;5016056;28;20048;-74
2022/05/07 00:35:09;;;;;;;11.05;8.48;;;;;;;;;;5016153;28;20080;-75
2022/05/07 00:37:37;;;;;;;11.95;8.60;;;;;;;;;;5036389;28;20040;-74
2022/05/07 00:40:03;;;;;;;11.32;8.07;;;;;;;;;;5037639;28;20082;-74
2022/05/07 00:42:28;;;;;;;9.70;7.03;;;;;;;;;;5037847;28;20033;-74
2022/05/07 00:44:53;;;;;;;9.80;6.82;;;;;;;;;;5019897;28;20044;-75
2022/05/07 00:47:24;;;;;;;9.23;8.18;;;;;;;;;;5019925;28;20024;-74
2022/05/07 00:49:49;;;;;;;;;;;;;;;;;;5020567;28;20108;-75
2022/05/07 00:52:15;;;;;;;11.50;8.10;;;;;;;;;;5037587;28;19994;-76
2022/05/07 00:54:41;;;;;;;10.63;8.25;;;;;;;;;;5019920;28;20422;-75
2022/05/07 00:57:13;;;;;;;11.85;8.35;;;;;;;;;;5019249;28;20025;-74
2022/05/07 00:59:38;;;;;;;10.13;7.93;;;;;;;;;;5037256;28;20038;-75
2022/05/07 01:02:05;;;;;;;13.23;9.18;;;;;;;;;;5019042;28;20028;-75
2022/05/07 01:04:30;;;;;;;10.27;8.27;;;;;;;;;;5019627;28;20032;-75
2022/05/07 01:06:56;;;;;;;11.20;8.38;;;;;;;;;;5019419;28;20020;-76
2022/05/07 01:09:21;;;;;;;10.90;7.70;;;;;;;;;;5019160;28;20117;-75
2022/05/07 01:11:47;;;;;;;10.93;7.95;;;;;;;;;;5036679;28;20129;-74
2022/05/07 01:14:13;;;;;;;9.40;7.57;;;;;;;;;;5035515;28;20029;-74
2022/05/07 01:16:39;;;;;;;10.18;7.32;;;;;;;;;;5019414;28;20033;-76
2022/05/07 01:19:04;;;;;;;10.00;7.72;;;;;;;;;;5036702;28;20031;-78
2022/05/07 01:21:30;;;;;;;11.75;7.63;;;;;;;;;;5018987;28;20092;-76
2022/05/07 01:23:57;;;;;;;9.02;7.53;;;;;;;;;;5019379;28;20025;-76
2022/05/07 01:26:27;;;;;;;9.95;6.93;;;;;;;;;;5019190;28;20109;-74
2022/05/07 01:29:01;;;;;;;8.95;6.72;;;;;;;;;;5019538;28;20033;-81
2022/05/07 01:31:29;;;;;;;8.85;6.68;;;;;;;;;;5019016;28;20530;-75
2022/05/07 01:33:54;;;;;;;9.48;6.90;;;;;;;;;;5018599;28;20115;-74
2022/05/07 01:36:21;;;;;;;11.10;7.70;;;;;;;;;;5019083;28;20040;-75
2022/05/07 01:38:53;;;;;;;10.65;7.40;;;;;;;;;;5018988;28;20065;-75
2022/05/07 01:41:19;;;;;;;9.48;7.22;;;;;;;;;;5036369;28;20057;-76
2022/05/07 01:43:46;;;;;;;9.93;8.02;;;;;;;;;;5018365;28;20541;-76
2022/05/07 01:48:59;;;;;;;12.13;8.05;;;;;;;;;;5017854;28;20036;-76
2022/05/07 01:51:30;;;;;;;9.52;8.15;;;;;;;;;;5002659;28;20018;-76
2022/05/07 01:53:56;;;;;;;10.98;7.55;;;;;;;;;;5019049;28;20041;-76
2022/05/07 01:56:22;;;;;;;11.20;7.22;;;;;;;;;;5018536;28;20021;-75
2022/05/07 01:58:48;;;;;;;9.57;7.75;;;;;;;;;;5018513;28;20057;-75
2022/05/07 02:01:15;;;;;;;10.07;7.57;;;;;;;;;;5017984;28;20515;-75
2022/05/07 02:03:41;;;;;;;11.70;6.75;;;;;;;;;;5034543;28;20029;-75
2022/05/07 02:06:07;;;;;;;7.93;7.13;;;;;;;;;;5017517;28;20037;-75
2022/05/07 02:08:34;;;;;;;9.00;7.00;;;;;;;;;;5018397;28;20034;-76
2022/05/07 02:11:06;;;;;;;9.48;7.45;;;;;;;;;;5018041;28;20511;-76
2022/05/07 02:13:33;;;;;;;9.60;7.82;;;;;;;;;;5018330;28;20573;-76
2022/05/07 02:15:59;;;;;;;10.23;7.47;;;;;;;;;;5035840;28;20017;-76
2022/05/07 02:18:24;;;;;;;8.52;7.72;;;;;;;;;;5034271;28;20473;-76
2022/05/07 02:20:50;;;;;;;9.18;7.25;;;;;;;;;;5017702;28;20080;-77
2022/05/07 02:23:24;;;;;;;13.80;7.97;;;;;;;;;;5035648;28;20032;-76
2022/05/07 02:25:50;;;;;;;16.50;7.93;;;;;;;;;;5017608;28;20386;-76
2022/05/07 02:28:18;;;;;;;11.80;7.53;;;;;;;;;;5001459;28;20014;-76
2022/05/07 02:30:45;;;;;;;9.70;7.67;;;;;;;;;;5017550;28;20064;-76
2022/05/07 02:33:11;;;;;;;9.02;7.53;;;;;;;;;;5018359;28;20029;-75
2022/05/07 02:35:37;;;;;;;9.95;7.32;;;;;;;;;;5017478;28;20028;-75
2022/05/07 02:38:02;;;;;;;7.82;6.90;;;;;;;;;;5035650;28;20071;-74
2022/05/07 02:40:29;;;;;;;10.15;7.10;;;;;;;;;;5017842;28;20381;-74
2022/05/07 02:42:56;;;;;;;7.25;6.55;;;;;;;;;;5017871;28;20021;-75
2022/05/07 02:45:24;;;;;;;10.13;6.30;;;;;;;;;;5018162;28;20156;-74
2022/05/07 02:47:53;;;;;;;8.05;7.18;;;;;;;;;;5017202;28;20029;-76
2022/05/07 02:50:24;;;;;;;7.70;6.88;;;;;;;;;;5017770;28;20052;-76
2022/05/07 02:52:49;;;;;;;9.15;7.65;;;;;;;;;;5017470;28;20025;-75
2022/05/07 02:55:17;;;;;;;11.05;8.68;;;;;;;;;;5017036;28;20363;-76
2022/05/07 02:57:48;;;;;;;9.15;8.13;;;;;;;;;;5017364;28;20382;-76
2022/05/07 03:00:16;;;;;;;11.10;8.77;;;;;;;;;;5033772;28;20040;-75
2022/05/07 03:02:41;;;;;;;11.07;8.70;;;;;;;;;;5017087;28;20036;-75
2022/05/07 03:08:11;;;;;;;10.77;8.40;;;;;;;;;;5017140;28;20032;-76
2022/05/07 03:10:36;;;;;;;11.65;9.35;;;;;;;;;;5016857;28;20790;-76
2022/05/07 03:13:02;;;;;;;11.43;8.65;;;;;;;;;;5033103;28;20032;-76
2022/05/07 03:15:29;;;;;;;12.02;9.18;;;;;;;;;;5034410;28;20035;-76
2022/05/07 03:17:54;;;;;;;8.95;7.65;;;;;;;;;;5033094;28;20043;-76
2022/05/07 03:20:27;;;;;;;10.68;8.05;;;;;;;;;;5017211;28;20108;-76
2022/05/07 03:22:52;;;;;;;9.75;8.20;;;;;;;;;;5032800;28;20072;-76
2022/05/07 03:25:20;;;;;;;10.48;8.35;;;;;;;;;;5034226;28;20049;-76
2022/05/07 03:27:46;;;;;;;10.07;8.15;;;;;;;;;;5017591;28;20025;-74
2022/05/07 03:30:15;;;;;;;9.98;7.90;;;;;;;;;;5016875;28;20026;-74
2022/05/07 03:32:58;;;;;;;13.75;9.02;;;;;;;;;;5016697;28;20033;-74
2022/05/07 03:35:25;;;;;;;12.45;8.30;;;;;;;;;;5033145;28;20547;-74
2022/05/07 03:37:50;;;;;;;10.70;8.73;;;;;;;;;;5032969;28;20025;-74
2022/05/07 03:40:16;;;;;;;11.73;8.57;;;;;;;;;;5032903;28;20044;-74
2022/05/07 03:42:43;;;;;;;13.82;8.23;;;;;;;;;;5033902;28;20033;-75
2022/05/07 03:45:11;;;;;;;9.52;6.80;;;;;;;;;;5016906;28;20113;-76
2022/05/07 03:47:39;;;;;;;9.93;7.22;;;;;;;;;;5032890;28;20014;-74
2022/05/07 03:50:05;;;;;;;7.53;6.55;;;;;;;;;;5016451;28;20032;-75
2022/05/07 03:55:17;;;;;;;9.73;7.00;;;;;;;;;;5016175;28;20037;-75
2022/05/07 03:57:42;;;;;;;7.53;6.38;;;;;;;;;;5032580;28;20021;-74
2022/05/07 04:00:08;;;;;;;7.10;6.05;;;;;;;;;;5016161;28;20455;-75
2022/05/07 04:02:39;;;;;;;9.57;5.65;;;;;;;;;;5033872;28;20044;-76
2022/05/07 04:05:07;;;;;;;6.30;5.45;;;;;;;;;;5016639;28;20415;-77
2022/05/07 04:07:33;;;;;;;8.70;6.38;;;;;;;;;;5016107;28;20017;-74
2022/05/07 04:10:07;;;;;;;6.55;5.82;;;;;;;;;;5014774;28;20068;-75
2022/05/07 04:12:36;;;;;;;6.82;5.78;;;;;;;;;;4998293;28;20045;-75
2022/05/07 04:15:03;;;;;;;8.55;5.97;;;;;;;;;;5014610;28;20057;-74
2022/05/07 04:17:31;;;;;;;6.32;4.82;;;;;;;;;;5014605;28;20038;-75
2022/05/07 04:19:59;;;;;;;6.55;4.30;;;;;;;;;;5014611;28;20107;-75
2022/05/07 04:22:26;;;;;;;5.03;4.45;;;;;;;;;;5014349;28;20029;-74
2022/05/07 04:24:51;;;;;;;5.28;4.55;;;;;;;;;;4998290;28;20032;-74
2022/05/07 04:27:17;;;;;;;5.03;4.63;;;;;;;;;;5014553;28;20022;-72
2022/05/07 04:29:49;;;;;;;7.93;4.15;;;;;;;;;;5031015;28;20179;-72
2022/05/07 04:32:18;;;;;;;6.72;4.18;;;;;;;;;;5014504;28;20053;-72
2022/05/07 04:34:49;;;;;;;6.32;4.30;;;;;;;;;;5014513;28;20087;-75
2022/05/07 04:37:15;;;;;;;5.65;4.40;;;;;;;;;;5014782;28;20474;-75
2022/05/07 04:39:41;;;;;;;5.80;4.30;;;;;;;;;;5014428;28;20013;-75
2022/05/07 04:42:08;;;;;;;9.05;5.22;;;;;;;;;;5014355;28;20026;-75
2022/05/07 04:44:42;;;;;;;6.32;4.68;;;;;;;;;;5032019;28;20025;-75
2022/05/07 04:47:15;;;;;;;4.65;4.15;;;;;;;;;;5032037;28;20022;-75
2022/05/07 04:49:42;;;;;;;6.60;3.88;;;;;;;;;;5030731;28;20029;-75
2022/05/07 04:52:07;;;;;;;4.88;3.90;;;;;;;;;;5014438;28;20026;-78
2022/05/07 04:54:36;;;;;;;7.45;4.40;;;;;;;;;;5031445;28;20736;-78
2022/05/07 04:57:03;;;;;;;5.75;3.85;;;;;;;;;;5031930;28;20446;-77
2022/05/07 04:59:59;;;;;;;4.53;3.80;;;;;;;;;;5018089;28;20037;-78
2022/05/07 05:02:38;;;;;;;6.72;3.88;;;;;;;;;;5014153;28;20032;-75
2022/05/07 05:05:07;;;;;;;4.40;3.70;;;;;;;;;;5030764;28;20025;-75
2022/05/07 05:07:32;;;;;;;4.03;3.67;;;;;;;;;;5032531;28;20024;-75
2022/05/07 05:09:58;;;;;;;5.43;3.97;;;;;;;;;;5014215;28;20053;-75
2022/05/07 05:12:33;;;;;;;5.45;4.30;;;;;;;;;;5014088;28;20053;-77
2022/05/07 05:15:03;;;;;;;4.80;4.30;;;;;;;;;;5030622;28;20034;-77
2022/05/07 05:17:57;;;;;;;6.57;4.35;;;;;;;;;;5022637;28;20086;-76
2022/05/07 05:20:23;;;;;;;5.18;4.03;;;;;;;;;;5031837;28;20444;-75
2022/05/07 05:22:56;;;;;;;5.40;3.90;;;;;;;;;;5031705;28;20045;-75
2022/05/07 05:25:29;;;;;;;4.63;4.03;;;;;;;;;;5017632;28;20048;-75
2022/05/07 05:27:55;;;;;;;4.25;3.65;;;;;;;;;;5017581;28;20057;-76
2022/05/07 05:30:21;;;;;;;4.18;3.53;;;;;;;;;;5017485;28;20052;-75
2022/05/07 05:32:50;;;;;;;6.57;3.75;;;;;;;;;;5017513;28;20030;-76
2022/05/07 05:35:15;;;;;;;4.00;3.40;;;;;;;;;;5017161;28;20531;-75
2022/05/07 05:37:45;;;;;;;;;;;;;;;;;;5018133;28;20026;-76
2022/05/07 05:40:12;;;;;;;5.82;3.90;;;;;;;;;;5017359;28;19963;-76
2022/05/07 05:42:44;;;;;;;4.53;3.80;;;;;;;;;;5016875;28;20075;-76
2022/05/07 05:45:10;;;;;;;3.97;3.65;;;;;;;;;;5015599;28;20022;-76
2022/05/07 05:47:39;;;;;;;6.30;3.58;;;;;;;;;;5015380;28;20021;-76
2022/05/07 05:50:04;;;;;;;5.03;3.97;;;;;;;;;;5016732;28;20505;-76
2022/05/07 05:52:37;;;;;;;5.03;3.63;;;;;;;;;;5016429;28;20427;-76
2022/05/07 05:55:04;;;;;;;6.25;4.18;;;;;;;;;;5016653;28;20025;-76
2022/05/07 05:57:30;;;;;;;8.82;5.60;;;;;;;;;;5016287;28;20488;-75
2022/05/07 05:59:55;;;;;;;10.23;6.32;;;;;;;;;;5016863;28;20029;-75
2022/05/07 06:02:21;;;;;;;9.73;6.53;;;;;;;;;;5034645;28;20362;-76
2022/05/07 06:04:54;;;;;;;14.85;6.60;;;;;;;;;;5018150;28;20017;-76
2022/05/07 06:07:23;;;;;;;7.97;5.63;;;;;;;;;;5016801;28;20090;-76
2022/05/07 06:09:53;;;;;;;7.57;5.30;;;;;;;;;;5033321;28;20057;-76
2022/05/07 06:12:23;;;;;;;8.07;4.75;;;;;;;;;;5013278;28;20300;-76
2022/05/07 06:14:53;;;;;;;6.10;4.38;;;;;;;;;;5014726;28;20038;-76
2022/05/07 06:17:19;;;;;;;6.57;4.43;;;;;;;;;;4997155;28;20095;-76
2022/05/07 06:19:48;;;;;;;4.25;3.70;;;;;;;;;;5013363;28;20022;-76
2022/05/07 06:22:15;;;;;;;4.32;3.80;;;;;;;;;;5013242;28;20026;-76
2022/05/07 06:27:32;;;;;;;4.38;3.90;;;;;;;;;;4996877;28;20040;-76
2022/05/07 06:30:10;;;;;;;4.18;3.50;;;;;;;;;;5013075;28;20053;-76
2022/05/07 06:32:44;;;;;;;5.25;3.60;;;;;;;;;;5014223;28;20053;-76
2022/05/07 06:35:10;;;;;;;4.68;3.88;;;;;;;;;;4996462;28;20061;-76
2022/05/07 06:37:49;;;;;;;4.18;3.80;;;;;;;;;;5014186;28;20084;-76
2022/05/07 06:40:18;;;;;;;4.40;4.00;;;;;;;;;;4996596;28;20034;-76
2022/05/07 06:42:46;;;;;;;6.22;3.78;;;;;;;;;;5012756;28;20025;-76
2022/05/07 06:45:19;;;;;;;4.43;4.03;;;;;;;;;;4996487;28;20030;-76
2022/05/07 06:47:44;;;;;;;4.53;4.07;;;;;;;;;;4996474;28;20072;-73
2022/05/07 06:50:13;;;;;;;4.70;3.97;;;;;;;;;;5013631;28;20104;-75
2022/05/07 06:52:44;;;;;;;5.10;3.55;;;;;;;;;;4997716;28;20041;-75
2022/05/07 06:55:13;;;;;;;3.65;3.35;;;;;;;;;;4997345;28;20036;-75
2022/05/07 06:57:38;;;;;;;6.18;3.55;;;;;;;;;;4997661;28;20072;-75
2022/05/07 07:00:09;;;;;;;7.00;3.95;;;;;;;;;;5014987;28;20690;-75
2022/05/07 07:02:35;;;;;;;5.43;3.78;;;;;;;;;;5015239;28;20402;-75
2022/05/07 07:05:03;;;;;;;4.30;3.70;;;;;;;;;;5014931;28;20021;-75
2022/05/07 07:07:29;;;;;;;5.05;3.30;;;;;;;;;;5014949;28;20030;-75
2022/05/07 07:09:54;;;;;;;5.45;3.42;;;;;;;;;;5014453;28;20577;-75
2022/05/07 07:12:20;;;;;;;6.63;3.42;;;;;;;;;;5029968;28;20136;-75
2022/05/07 07:14:47;;;;;;;7.80;3.60;;;;;;;;;;5015534;28;20087;-74
2022/05/07 07:17:13;;;;;;;4.00;3.50;;;;;;;;;;5033222;28;20026;-74
2022/05/07 07:19:41;;;;;;;5.38;3.53;;;;;;;;;;5033214;28;20032;-74
2022/05/07 07:22:07;;;;;;;5.03;3.30;;;;;;;;;;5033353;28;20442;-74
2022/05/07 07:24:32;;;;;;;5.78;3.10;;;;;;;;;;5032978;28;20092;-74
2022/05/07 07:26:57;;;;;;;6.57;3.67;;;;;;;;;;5033121;28;20105;-75
2022/05/07 07:29:23;;;;;;;6.23;3.67;;;;;;;;;;5033090;28;20458;-75
2022/05/07 07:31:48;;;;;;;6.45;3.40;;;;;;;;;;5032976;28;20629;-74
2022/05/07 07:34:22;;;;;;;5.53;3.15;;;;;;;;;;5032953;28;20393;-74
2022/05/07 07:36:50;;;;;;;3.40;3.10;;;;;;;;;;5032583;28;20480;-74
2022/05/07 07:39:17;;;;;;;2.95;2.75;;;;;;;;;;5015981;28;20029;-75
2022/05/07 07:41:43;;;;;;;5.63;3.22;;;;;;;;;;5033734;28;20731;-74
2022/05/07 07:44:08;;;;;;;4.35;3.15;;;;;;;;;;5033896;28;20021;-74
2022/05/07 07:49:18;;;;;;;5.00;3.50;;;;;;;;;;5033831;28;20030;-74
2022/05/07 07:51:43;;;;;;;4.87;3.47;;;;;;;;;;5032847;28;20029;-74
2022/05/07 07:54:09;;;;;;;3.80;3.47;;;;;;;;;;5033708;28;20334;-74
2022/05/07 07:56:34;;;;;;;6.57;4.18;;;;;;;;;;5033695;28;20416;-74
2022/05/07 07:59:00;;;;;;;4.82;3.78;;;;;;;;;;5033787;28;20490;-74
2022/05/07 08:01:26;;;;;;;5.88;3.75;;;;;;;;;;5033340;28;20036;-74
2022/05/07 08:03:51;;;;;;;4.72;3.05;;;;;;;;;;5033714;28;20025;-75
2022/05/07 08:06:17;;;;;;;4.50;2.53;;;;;;;;;;5033612;28;20036;-74
2022/05/07 08:11:40;;;;;;;5.60;2.35;;;;;;;;;;5033342;28;20085;-74
2022/05/07 08:14:09;;;;;;;4.28;2.97;;;;;;;;;;5033454;28;20048;-74
2022/05/07 08:16:36;;;;;;;3.38;2.55;;;;;;;;;;5033573;28;20064;-74
2022/05/07 08:19:09;;;;;;;4.35;3.08;;;;;;;;;;5015779;28;20029;-74
2022/05/07 08:21:39;;;;;;;5.43;3.67;;;;;;;;;;5033359;28;20033;-74
2022/05/07 08:24:05;;;;;;;4.95;3.47;;;;;;;;;;5033488;28;20029;-74
2022/05/07 08:26:30;;;;;;;5.45;3.70;;;;;;;;;;5033500;28;20014;-74
2022/05/07 08:28:56;;;;;;;4.13;3.17;;;;;;;;;;5033352;28;20473;-75
2022/05/07 08:31:23;;;;;;;7.68;3.80;;;;;;;;;;5033261;28;20092;-74
2022/05/07 08:33:49;;;;;;;5.07;2.58;;;;;;;;;;5033395;28;20036;-74
2022/05/07 08:36:14;;;;;;;3.40;2.45;;;;;;;;;;5033255;28;20017;-74
2022/05/07 08:38:40;;;;;;;7.63;3.20;;;;;;;;;;5033177;28;20034;-75
2022/05/07 08:41:05;;;;;;;5.15;3.08;;;;;;;;;;5033330;28;20022;-74
2022/05/07 08:43:32;;;;;;;4.85;2.65;;;;;;;;;;5033250;28;20095;-74
2022/05/07 08:45:57;;;;;;;3.47;2.25;;;;;;;;;;5033364;28;20408;-74
2022/05/07 08:48:23;;;;;;;3.90;2.88;;;;;;;;;;5033106;28;20116;-74
2022/05/07 08:50:51;;;;;;;7.85;2.72;;;;;;;;;;5015586;28;20022;-74
2022/05/07 08:53:16;;;;;;;5.65;3.08;;;;;;;;;;5015428;28;20481;-74
2022/05/07 08:55:42;;;;;;;3.15;2.58;;;;;;;;;;5033202;28;20034;-74
2022/05/07 08:58:07;;;;;;;2.50;2.05;;;;;;;;;;5034615;28;20068;-75
2022/05/07 09:00:33;;;;;;;3.80;2.70;;;;;;;;;;5036972;28;20025;-74
2022/05/07 09:03:00;;;;;;;4.63;2.60;;;;;;;;;;5036812;28;20029;-74
2022/05/07 09:05:35;;;;;;;4.65;2.75;;;;;;;;;;5019210;28;20420;-74
2022/05/07 09:08:01;;;;;;;3.13;2.40;;;;;;;;;;5036804;28;20030;-74
2022/05/07 09:10:27;;;;;;;3.75;2.75;;;;;;;;;;5018971;28;20020;-74
2022/05/07 09:12:53;;;;;;;4.22;2.72;;;;;;;;;;5019189;28;20033;-74
2022/05/07 09:15:18;;;;;;;4.25;3.05;;;;;;;;;;5036566;28;20065;-75
2022/05/07 09:17:47;;;;;;;5.72;3.25;;;;;;;;;;5036816;28;20080;-74
2022/05/07 09:20:14;;;;;;;3.28;2.45;;;;;;;;;;5035901;28;20022;-74
2022/05/07 09:22:56;;;;;;;5.15;3.35;;;;;;;;;;5017958;28;20052;-74
2022/05/07 09:25:25;;;;;;;3.58;2.55;;;;;;;;;;5035949;28;20438;-74
2022/05/07 09:27:57;;;;;;;2.75;2.38;;;;;;;;;;5036500;28;20025;-74
2022/05/07 09:30:24;;;;;;;4.70;4.07;;;;;;;;;;5036494;28;20120;-74
2022/05/07 09:32:50;;;;;;;5.22;3.33;;;;;;;;;;5036235;28;20025;-75
2022/05/07 09:38:01;;;;;;;4.85;3.22;;;;;;;;;;5036221;28;20065;-74
2022/05/07 09:40:27;;;;;;;2.78;2.58;;;;;;;;;;5036286;28;20033;-75
2022/05/07 09:42:52;;;;;;;3.85;2.67;;;;;;;;;;5017504;28;20029;-74
2022/05/07 09:45:18;;;;;;;2.75;2.47;;;;;;;;;;5034984;28;20355;-74
2022/05/07 09:47:44;;;;;;;6.00;2.55;;;;;;;;;;5017099;28;20090;-74
2022/05/07 09:50:23;;;;;;;2.95;2.65;;;;;;;;;;5035218;28;20402;-74
2022/05/07 09:58:17;;;;;;;6.03;3.30;;;;;;;;;;5034786;28;20034;-75
2022/05/07 10:01:01;;;;;;;3.67;2.47;;;;;;;;;;5034643;28;20112;-74
2022/05/07 10:03:45;;;;;;;3.25;2.88;;;;;;;;;;5034471;28;20429;-75
2022/05/07 10:06:23;;;;;;;4.45;2.58;;;;;;;;;;5034626;28;20460;-74
2022/05/07 10:08:56;;;;;;;6.30;3.53;;;;;;;;;;5034404;28;20021;-74
2022/05/07 10:11:23;;;;;;;4.22;3.40;;;;;;;;;;5034119;28;20060;-74
2022/05/07 10:13:55;;;;;;;4.10;2.67;;;;;;;;;;5017153;28;20021;-74
2022/05/07 10:16:23;;;;;;;5.20;2.97;;;;;;;;;;5035665;28;20080;-74
2022/05/07 10:18:50;;;;;;;3.15;2.03;;;;;;;;;;5018130;28;20063;-74
2022/05/07 10:21:17;;;;;;;5.28;2.72;;;;;;;;;;5034220;28;20030;-74
2022/05/07 10:23:53;;;;;;;6.18;2.78;;;;;;;;;;5035710;28;20100;-74
2022/05/07 10:26:19;;;;;;;5.82;2.42;;;;;;;;;;5035061;28;20133;-74
2022/05/07 10:28:44;;;;;;;3.30;2.30;;;;;;;;;;5034942;28;20438;-74
2022/05/07 10:31:24;;;;;;;2.53;2.33;;;;;;;;;;5035322;28;20037;-74
2022/05/07 10:33:51;;;;;;;4.22;3.50;;;;;;;;;;5035075;28;20026;-73
2022/05/07 10:36:16;;;;;;;16.83;5.80;;;;;;;;;;5035080;28;20025;-74
2022/05/07 10:38:44;;;;;;;6.28;3.33;;;;;;;;;;5035131;28;20477;-73
2022/05/07 10:41:15;;;;;;;6.90;3.17;;;;;;;;;;5027645;28;20706;-73
2022/05/07 10:43:42;;;;;;;4.22;2.90;;;;;;;;;;5033540;28;20386;-73
2022/05/07 10:46:16;;;;;;;4.80;2.42;;;;;;;;;;5032971;28;20025;-73
2022/05/07 10:48:43;;;;;;;3.08;2.25;;;;;;;;;;5031422;28;20037;-73
2022/05/07 10:51:16;;;;;;;6.35;3.05;;;;;;;;;;5030328;28;20153;-73
2022/05/07 10:53:41;;;;;;;3.15;2.50;;;;;;;;;;5030285;28;20056;-73
2022/05/07 10:56:13;;;;;;;3.42;2.65;;;;;;;;;;5030233;28;20540;-73
2022/05/07 10:58:43;;;;;;;4.40;2.28;;;;;;;;;;5030323;28;20034;-73
2022/05/07 11:01:09;;;;;;;4.35;2.55;;;;;;;;;;5030199;28;20029;-73
2022/05/07 11:03:34;;;;;;;4.57;2.38;;;;;;;;;;5030017;28;20047;-73
2022/05/07 11:06:03;;;;;;;3.78;2.20;;;;;;;;;;5029947;28;20508;-73
2022/05/07 11:08:30;;;;;;;3.65;2.42;;;;;;;;;;5030108;28;20026;-73
2022/05/07 11:11:10;;;;;;;3.97;2.88;;;;;;;;;;5027366;28;20053;-73
2022/05/07 11:13:45;;;;;;;2.63;1.80;;;;;;;;;;5030007;28;20086;-73
2022/05/07 11:16:11;;;;;;;2.42;1.67;;;;;;;;;;5028527;28;20045;-73
2022/05/07 11:18:36;;;;;;;4.20;2.58;;;;;;;;;;5029861;28;20030;-74
2022/05/07 11:21:05;;;;;;;6.55;3.05;;;;;;;;;;5028157;28;20470;-74
2022/05/07 11:23:35;;;;;;;3.85;2.50;;;;;;;;;;5029719;28;20238;-75
2022/05/07 11:26:16;;;;;;;2.25;2.03;;;;;;;;;;5029934;28;20041;-75
2022/05/07 11:28:43;;;;;;;;;;;;;;;;;;5033243;28;20029;-75
2022/05/07 11:31:08;;;;;;;5.82;2.45;;;;;;;;;;5032832;28;19905;-75
2022/05/07 11:33:34;;;;;;;3.60;2.80;;;;;;;;;;5032631;28;20041;-75
2022/05/07 11:36:05;;;;;;;3.15;2.40;;;;;;;;;;5032863;28;20159;-75
2022/05/07 11:38:30;;;;;;;2.75;2.47;;;;;;;;;;5031472;28;20068;-75
2022/05/07 11:40:55;;;;;;;2.67;2.17;;;;;;;;;;5028729;28;20053;-75
2022/05/07 11:46:06;;;;;;;4.70;2.65;;;;;;;;;;5028360;28;20029;-75
2022/05/07 11:48:31;;;;;;;5.47;2.55;;;;;;;;;;5032604;28;20052;-75
2022/05/07 11:50:59;;;;;;;5.82;3.00;;;;;;;;;;5014745;28;20057;-75
2022/05/07 11:53:28;;;;;;;5.47;3.10;;;;;;;;;;5032643;28;20037;-75
2022/05/07 11:56:05;;;;;;;1.88;1.75;;;;;;;;;;5032641;28;20511;-75
2022/05/07 11:58:37;;;;;;;3.88;2.40;;;;;;;;;;5032649;28;20033;-75
2022/05/07 12:01:03;;;;;;;6.93;2.90;;;;;;;;;;5032330;28;20033;-75
2022/05/07 12:03:28;;;;;;;5.18;2.50;;;;;;;;;;5032425;28;20021;-75
2022/05/07 12:05:54;;;;;;;3.75;2.55;;;;;;;;;;5032476;28;20386;-75
2022/05/07 12:08:23;;;;;;;3.75;2.53;;;;;;;;;;5032514;28;20017;-75
2022/05/07 12:10:50;;;;;;;3.90;2.35;;;;;;;;;;5032215;28;20025;-75
2022/05/07 12:13:16;;;;;;;6.10;2.53;;;;;;;;;;5032194;28;20104;-75
2022/05/07 12:18:25;;;;;;;8.13;3.88;;;;;;;;;;5014588;28;20049;-75
2022/05/07 12:20:52;;;;;;;3.72;1.92;;;;;;;;;;5032390;28;20021;-75
2022/05/07 12:31:28;;;;;;;3.88;2.60;;;;;;;;;;5031865;28;20044;-75
2022/05/07 12:33:54;;;;;;;2.83;2.45;;;;;;;;;;5036132;28;20022;-75
2022/05/07 12:36:19;;;;;;;4.13;2.63;;;;;;;;;;5037620;28;20425;-75
2022/05/07 12:38:45;;;;;;;3.45;2.42;;;;;;;;;;5037447;28;20021;-75
2022/05/07 12:41:12;;;;;;;6.32;2.90;;;;;;;;;;5037227;28;20040;-75
2022/05/07 12:43:38;;;;;;;4.30;2.72;;;;;;;;;;5036085;28;20026;-75
2022/05/07 12:46:03;;;;;;;2.50;2.30;;;;;;;;;;5037424;28;20168;-75
2022/05/07 12:48:29;;;;;;;3.33;2.08;;;;;;;;;;5037554;28;20017;-75
2022/05/07 12:50:54;;;;;;;2.92;2.42;;;;;;;;;;5037103;28;20116;-75
2022/05/07 12:53:21;;;;;;;3.35;2.22;;;;;;;;;;5037364;28;20101;-75
2022/05/07 12:55:46;;;;;;;4.32;2.58;;;;;;;;;;5037146;28;20373;-75
2022/05/07 12:58:12;;;;;;;8.95;3.65;;;;;;;;;;5037246;28;20112;-75
2022/05/07 13:00:40;;;;;;;5.30;3.72;;;;;;;;;;5037121;28;20033;-75
2022/05/07 13:03:06;;;;;;;4.40;3.03;;;;;;;;;;5037136;28;20030;-75
2022/05/07 13:05:33;;;;;;;4.47;3.08;;;;;;;;;;5036726;28;20037;-75
2022/05/07 13:08:00;;;;;;;3.63;2.50;;;;;;;;;;5019006;28;20550;-75
2022/05/07 13:10:27;;;;;;;3.03;2.58;;;;;;;;;;5036555;28;20029;-75
2022/05/07 13:12:53;;;;;;;3.13;2.20;;;;;;;;;;5036899;28;20062;-75
2022/05/07 13:15:18;;;;;;;6.35;2.80;;;;;;;;;;5037014;28;20025;-75
2022/05/07 13:17:45;;;;;;;4.25;2.92;;;;;;;;;;5036545;28;20048;-75
2022/05/07 13:20:10;;;;;;;3.65;2.25;;;;;;;;;;5036848;28;20033;-75
2022/05/07 13:22:38;;;;;;;3.35;2.45;;;;;;;;;;5036691;28;20465;-75
2022/05/07 13:25:04;;;;;;;3.45;2.47;;;;;;;;;;5036539;28;20025;-75
2022/05/07 13:27:30;;;;;;;5.72;3.03;;;;;;;;;;5036748;28;20097;-75
2022/05/07 13:29:56;;;;;;;5.45;2.72;;;;;;;;;;5036560;28;20026;-75
2022/05/07 13:32:22;;;;;;;3.45;2.20;;;;;;;;;;5036230;28;20354;-75
2022/05/07 13:34:47;;;;;;;5.00;2.28;;;;;;;;;;5036494;28;20376;-75
2022/05/07 13:37:13;;;;;;;3.60;2.37;;;;;;;;;;5036335;28;20021;-75
2022/05/07 13:39:38;;;;;;;3.00;2.35;;;;;;;;;;5036510;28;20284;-75
2022/05/07 13:42:04;;;;;;;5.30;2.50;;;;;;;;;;5036275;28;20033;-75
2022/05/07 13:44:29;;;;;;;4.65;2.88;;;;;;;;;;5035242;28;20276;-75
2022/05/07 13:46:54;;;;;;;7.25;3.40;;;;;;;;;;5036046;28;20021;-75
2022/05/07 13:49:20;;;;;;;8.45;5.75;;;;;;;;;;5036239;28;20532;-75
2022/05/07 13:51:45;;;;;;;25.65;8.18;;;;;;;;;;5036396;28;20032;-75
2022/05/07 13:54:10;;;;;;;6.07;4.07;;;;;;;;;;5036179;28;20385;-75
2022/05/07 13:56:36;;;;;;;4.88;3.03;;;;;;;;;;5036011;28;20458;-75
2022/05/07 13:59:01;;;;;;;5.40;4.57;;;;;;;;;;5035870;28;20532;-75
2022/05/07 14:01:27;;;;;;;6.25;4.07;;;;;;;;;;5036064;28;20022;-75
2022/05/07 14:03:52;;;;;;;2.63;2.40;;;;;;;;;;5018342;28;20041;-75
2022/05/07 14:06:19;;;;;;;8.82;3.75;;;;;;;;;;5036056;28;20014;-75
2022/05/07 14:08:46;;;;;;;6.80;3.40;;;;;;;;;;5035715;28;20048;-75
2022/05/07 14:11:14;;;;;;;4.22;3.70;;;;;;;;;;5035346;28;20046;-75
2022/05/07 14:13:39;;;;;;;7.03;3.15;;;;;;;;;;5035741;28;20030;-75
2022/05/07 14:16:05;;;;;;;7.00;3.30;;;;;;;;;;5035862;28;20045;-75
2022/05/07 14:18:30;;;;;;;3.63;3.00;;;;;;;;;;5035224;28;20087;-75
2022/05/07 14:20:56;;;;;;;5.50;4.20;;;;;;;;;;5035131;28;20052;-75
2022/05/07 14:23:22;;;;;;;5.10;3.65;;;;;;;;;;5033208;28;20028;-75
2022/05/07 14:25:47;;;;;;;3.97;2.78;;;;;;;;;;5033277;28;20469;-75
2022/05/07 14:28:12;;;;;;;4.97;3.03;;;;;;;;;;5032992;28;20057;-75
2022/05/07 14:30:38;;;;;;;4.90;2.45;;;;;;;;;;5033021;28;20021;-75
2022/05/07 14:33:06;;;;;;;3.65;3.45;;;;;;;;;;5015796;28;20053;-75
2022/05/07 14:35:31;;;;;;;5.00;3.35;;;;;;;;;;5033980;28;20025;-75
2022/05/07 14:37:57;;;;;;;3.83;3.00;;;;;;;;;;5033937;28;20038;-75
2022/05/07 14:40:28;;;;;;;3.55;3.22;;;;;;;;;;5033945;28;20028;-75
2022/05/07 14:42:54;;;;;;;2.90;2.65;;;;;;;;;;5033813;28;20053;-75
2022/05/07 14:45:20;;;;;;;3.58;3.08;;;;;;;;;;5033929;28;20080;-75
2022/05/07 14:47:45;;;;;;;4.28;3.30;;;;;;;;;;5033835;28;20033;-75
2022/05/07 14:50:11;;;;;;;3.63;2.70;;;;;;;;;;5033650;28;20093;-75
2022/05/07 14:52:36;;;;;;;2.92;2.70;;;;;;;;;;5033699;28;20436;-75
2022/05/07 14:55:01;;;;;;;6.57;3.78;;;;;;;;;;5033606;28;20068;-75
2022/05/07 14:57:27;;;;;;;3.95;3.20;;;;;;;;;;5015972;28;20067;-75
2022/05/07 14:59:52;;;;;;;3.10;2.83;;;;;;;;;;5033696;28;20056;-75
2022/05/07 15:02:18;;;;;;;5.75;3.45;;;;;;;;;;5033334;28;20441;-75
2022/05/07 15:04:44;;;;;;;4.72;3.30;;;;;;;;;;5033386;28;20030;-75
2022/05/07 15:07:09;;;;;;;3.42;2.85;;;;;;;;;;5033358;28;20018;-75
2022/05/07 15:12:18;;;;;;;11.40;7.93;;;;;;;;;;5033440;28;20049;-76
2022/05/07 15:14:45;;;;;;;5.53;4.88;;;;;;;;;;5034043;28;20034;-75
2022/05/07 15:17:11;;;;;;;5.60;3.30;;;;;;;;;;5033263;28;20069;-76
2022/05/07 15:19:36;;;;;;;10.93;5.70;;;;;;;;;;5033186;28;20060;-76
2022/05/07 15:22:02;;;;;;;25.48;7.97;;;;;;;;;;5033127;28;20112;-76
2022/05/07 15:24:29;;;;;;;7.22;4.93;;;;;;;;;;5033528;28;20365;-76